»·PEaware :: N557TS KCNO-KBFL

N557TS :: KCNO-KBFL

FLIGHT INFORMATION

Flight Status: Arrived
Operator: Privately registered:
United States
More flights under this callsign
Pilot: Liam A. (32590)
Aircraft: CIRRUS SR-20
(SR20)
More flights by this aircraft type
Origin: KCNO Chino
United States
Destination: KBFL Meadows
United States
More flights between these airports :: More routes between these airports
Route: PDZ V186 DARTS V459 LHS
File this flight plan on PilotEdge
Remarks:
Altitude:
(Current/Filed)
6,000ft
Speed:
(Current/Filed)
146kts
Departed: 22-Feb-21 09:43 PM
Arrived: 22-Feb-21 10:40 PM
Distance/Time
Traveled:
112nm/0:57
Distance/Time
To Go:
Arrived

Flight Plot

Page will automatically refresh every two minutes.

Flight plan parsing failed; only flown route is shown


Map Options




Map Legend


Flown Route
Filed Route
Departure Airport
Arrival Airport
Navaid (VOR, NDB)
Fix

Horizontal Profiles

Position Reports

Time Latitude Longitude Heading Altitude Ground
Speed
22-Feb-21 21:16 33.978175 -117.637913 90 652ft 0kts
22-Feb-21 21:17 33.978175 -117.637913 90 652ft 0kts
22-Feb-21 21:18 33.978175 -117.637913 90 652ft 0kts
22-Feb-21 21:19 33.978175 -117.637913 90 652ft 0kts
22-Feb-21 21:20 33.978175 -117.637913 90 652ft 0kts
22-Feb-21 21:21 33.978175 -117.637913 90 652ft 0kts
22-Feb-21 21:22 33.978175 -117.637913 90 652ft 0kts
22-Feb-21 21:23 33.978175 -117.637913 90 652ft 0kts
22-Feb-21 21:24 33.978175 -117.637913 90 652ft 0kts
22-Feb-21 21:25 33.978175 -117.637913 90 652ft 0kts
22-Feb-21 21:26 33.978175 -117.637913 90 652ft 0kts
22-Feb-21 21:27 33.978175 -117.637913 90 652ft 0kts
22-Feb-21 21:28 33.978175 -117.637913 90 652ft 0kts
22-Feb-21 21:29 33.978175 -117.637913 90 652ft 0kts
22-Feb-21 21:30 33.978175 -117.637913 90 652ft 0kts
22-Feb-21 21:31 33.978175 -117.637913 90 652ft 0kts
22-Feb-21 21:32 33.978175 -117.637913 90 652ft 0kts
22-Feb-21 21:33 33.978175 -117.637913 90 652ft 0kts
22-Feb-21 21:34 33.978175 -117.637913 90 652ft 0kts
22-Feb-21 21:35 33.978175 -117.637913 90 652ft 0kts
22-Feb-21 21:36 33.978175 -117.637913 90 652ft 0kts
22-Feb-21 21:37 33.977977 -117.637745 191 652ft 0kts
22-Feb-21 21:38 33.976873 -117.638970 268 652ft 9kts
22-Feb-21 21:39 33.976837 -117.643501 268 652ft 16kts
22-Feb-21 21:40 33.976773 -117.646827 134 652ft 0kts
22-Feb-21 21:41 33.976759 -117.646811 135 652ft 1kts
22-Feb-21 21:43 33.975738 -117.642125 89 655ft 75kts
22-Feb-21 21:44 33.968676 -117.613211 124 1603ft 100kts
22-Feb-21 21:45 33.952509 -117.586019 128 2676ft 101kts
22-Feb-21 21:46 33.932304 -117.565435 197 3699ft 103kts
22-Feb-21 21:47 33.940739 -117.595814 315 4544ft 120kts
22-Feb-21 21:48 33.959890 -117.627881 283 5327ft 121kts
22-Feb-21 21:49 33.970111 -117.665658 290 6006ft 127kts
22-Feb-21 21:50 33.983894 -117.709679 287 5987ft 147kts
22-Feb-21 21:51 33.997212 -117.755419 290 5976ft 144kts
22-Feb-21 21:52 34.010710 -117.800715 290 5982ft 141kts
22-Feb-21 21:53 34.021923 -117.835690 291 6006ft 141kts
22-Feb-21 21:54 34.036579 -117.879889 291 5997ft 142kts
22-Feb-21 21:55 34.050550 -117.924585 290 5993ft 142kts
22-Feb-21 21:56 34.064615 -117.969414 291 5987ft 143kts
22-Feb-21 21:57 34.078195 -118.014505 288 5976ft 143kts
22-Feb-21 21:58 34.091140 -118.059845 291 6006ft 143kts
22-Feb-21 21:59 34.105524 -118.104726 291 6020ft 143kts
22-Feb-21 22:00 34.119358 -118.150055 289 6015ft 144kts
22-Feb-21 22:01 34.132506 -118.195989 289 6009ft 145kts
22-Feb-21 22:02 34.145845 -118.242092 290 5986ft 145kts
22-Feb-21 22:03 34.170828 -118.277152 330 5984ft 145kts
22-Feb-21 22:04 34.206705 -118.299292 330 5973ft 145kts
22-Feb-21 22:05 34.242669 -118.321661 333 5966ft 145kts
22-Feb-21 22:06 34.278503 -118.343252 334 5983ft 144kts
22-Feb-21 22:06 34.308985 -118.359802 335 6005ft 143kts
22-Feb-21 22:08 34.351071 -118.383697 334 6019ft 143kts
22-Feb-21 22:09 34.387325 -118.404336 334 5999ft 143kts
22-Feb-21 22:09 34.417062 -118.422121 332 6015ft 142kts
22-Feb-21 22:11 34.456564 -118.445119 334 6659ft 125kts
22-Feb-21 22:11 34.482190 -118.458914 334 7270ft 118kts
22-Feb-21 22:12 34.511597 -118.475643 332 7932ft 119kts
22-Feb-21 22:13 34.543642 -118.495045 330 8090ft 136kts
22-Feb-21 22:15 34.584842 -118.520382 332 7992ft 146kts
22-Feb-21 22:16 34.621517 -118.541478 335 7908ft 144kts
22-Feb-21 22:16 34.651824 -118.557998 333 7890ft 142kts
22-Feb-21 22:17 34.687423 -118.578210 333 7948ft 140kts
22-Feb-21 22:18 34.721938 -118.600214 329 8023ft 140kts
22-Feb-21 22:19 34.755960 -118.622945 329 8048ft 141kts
22-Feb-21 22:20 34.790089 -118.646637 330 8011ft 141kts
22-Feb-21 22:21 34.826003 -118.669553 333 8005ft 151kts
22-Feb-21 22:22 34.866559 -118.688815 342 8035ft 156kts
22-Feb-21 22:23 34.907823 -118.704590 333 8234ft 147kts
22-Feb-21 22:24 34.945006 -118.728452 331 8241ft 151kts
22-Feb-21 22:25 34.979872 -118.754085 333 8220ft 147kts
22-Feb-21 22:26 35.015694 -118.778867 332 8020ft 157kts
22-Feb-21 22:27 35.054129 -118.805758 335 7515ft 159kts
22-Feb-21 22:28 35.094420 -118.832024 334 6711ft 167kts
22-Feb-21 22:29 35.135008 -118.858203 332 5935ft 166kts
22-Feb-21 22:30 35.174712 -118.885379 332 4878ft 164kts
22-Feb-21 22:31 35.215544 -118.912256 333 3758ft 169kts
22-Feb-21 22:32 35.256640 -118.937653 336 3121ft 161kts
22-Feb-21 22:33 35.296307 -118.958951 336 2934ft 153kts
22-Feb-21 22:34 35.334559 -118.981073 342 2842ft 154kts
22-Feb-21 22:35 35.373980 -118.997777 346 2005ft 134kts
22-Feb-21 22:36 35.401813 -119.017738 319 1355ft 94kts
22-Feb-21 22:37 35.418274 -119.037480 319 903ft 78kts
22-Feb-21 22:38 35.433451 -119.055696 317 508ft 61kts
22-Feb-21 22:39 35.436529 -119.057233 127 508ft 10kts
22-Feb-21 22:40 35.433496 -119.053520 135 508ft 16kts
22-Feb-21 22:41 35.431333 -119.050265 48 508ft 8kts
22-Feb-21 22:42 35.432420 -119.050230 148 508ft 0kts

Navigation Log

Ident Type
Flight plan parsing failed, navigation log unavailable